sensor_id;sensor_type;location;lat;lon;timestamp;temperature;humidity
909;DHT22;441;51.192;6.788;2022-08-23T00:01:41;25.40;78.70
909;DHT22;441;51.192;6.788;2022-08-23T00:04:11;25.40;80.90
909;DHT22;441;51.192;6.788;2022-08-23T00:06:40;25.40;81.10
909;DHT22;441;51.192;6.788;2022-08-23T00:09:08;25.40;81.50
909;DHT22;441;51.192;6.788;2022-08-23T00:11:37;25.30;81.10
909;DHT22;441;51.192;6.788;2022-08-23T00:14:08;25.30;81.10
909;DHT22;441;51.192;6.788;2022-08-23T00:16:36;25.30;81.50
909;DHT22;441;51.192;6.788;2022-08-23T00:19:03;25.10;81.60
909;DHT22;441;51.192;6.788;2022-08-23T00:21:31;25.10;81.90
909;DHT22;441;51.192;6.788;2022-08-23T00:23:58;25.10;81.60
909;DHT22;441;51.192;6.788;2022-08-23T00:26:25;25.20;83.20
909;DHT22;441;51.192;6.788;2022-08-23T00:28:52;25.20;83.70
909;DHT22;441;51.192;6.788;2022-08-23T00:31:19;25.20;84.50
909;DHT22;441;51.192;6.788;2022-08-23T00:33:46;25.20;83.50
909;DHT22;441;51.192;6.788;2022-08-23T00:36:13;25.20;83.50
909;DHT22;441;51.192;6.788;2022-08-23T00:38:41;25.10;83.40
909;DHT22;441;51.192;6.788;2022-08-23T00:41:08;25.10;83.90
909;DHT22;441;51.192;6.788;2022-08-23T00:43:37;25.10;84.30
909;DHT22;441;51.192;6.788;2022-08-23T00:46:34;25.00;84.50
909;DHT22;441;51.192;6.788;2022-08-23T00:49:23;25.00;84.90
909;DHT22;441;51.192;6.788;2022-08-23T00:51:56;25.00;84.70
909;DHT22;441;51.192;6.788;2022-08-23T00:54:27;25.00;85.10
909;DHT22;441;51.192;6.788;2022-08-23T00:56:57;25.00;84.90
909;DHT22;441;51.192;6.788;2022-08-23T00:59:25;24.90;84.90
909;DHT22;441;51.192;6.788;2022-08-23T01:01:52;24.90;85.30
909;DHT22;441;51.192;6.788;2022-08-23T01:04:19;24.90;86.30
909;DHT22;441;51.192;6.788;2022-08-23T01:06:49;25.00;86.90
909;DHT22;441;51.192;6.788;2022-08-23T01:09:18;24.90;86.90
909;DHT22;441;51.192;6.788;2022-08-23T01:11:51;24.90;87.00
909;DHT22;441;51.192;6.788;2022-08-23T01:14:24;24.90;87.60
909;DHT22;441;51.192;6.788;2022-08-23T01:16:54;24.90;88.00
909;DHT22;441;51.192;6.788;2022-08-23T01:19:24;24.90;88.10
909;DHT22;441;51.192;6.788;2022-08-23T01:21:58;24.80;87.90
909;DHT22;441;51.192;6.788;2022-08-23T01:24:28;24.70;88.60
909;DHT22;441;51.192;6.788;2022-08-23T01:26:55;24.50;90.40
909;DHT22;441;51.192;6.788;2022-08-23T01:29:22;24.50;91.10
909;DHT22;441;51.192;6.788;2022-08-23T01:31:49;24.50;91.20
909;DHT22;441;51.192;6.788;2022-08-23T01:34:16;24.50;91.30
909;DHT22;441;51.192;6.788;2022-08-23T01:36:44;24.60;91.70
909;DHT22;441;51.192;6.788;2022-08-23T01:39:11;24.60;91.70
909;DHT22;441;51.192;6.788;2022-08-23T01:41:40;24.60;91.60
909;DHT22;441;51.192;6.788;2022-08-23T01:44:07;24.50;91.60
909;DHT22;441;51.192;6.788;2022-08-23T01:46:34;24.50;91.70
909;DHT22;441;51.192;6.788;2022-08-23T01:49:03;24.50;92.00
909;DHT22;441;51.192;6.788;2022-08-23T01:51:30;24.50;92.20
909;DHT22;441;51.192;6.788;2022-08-23T01:53:57;24.50;92.40
909;DHT22;441;51.192;6.788;2022-08-23T01:56:25;24.40;92.50
909;DHT22;441;51.192;6.788;2022-08-23T01:58:53;24.40;92.70
909;DHT22;441;51.192;6.788;2022-08-23T02:01:20;24.40;92.80
909;DHT22;441;51.192;6.788;2022-08-23T02:03:47;24.40;92.80
909;DHT22;441;51.192;6.788;2022-08-23T02:06:14;24.40;93.20
909;DHT22;441;51.192;6.788;2022-08-23T02:08:41;24.50;93.40
909;DHT22;441;51.192;6.788;2022-08-23T02:11:26;24.40;93.00
909;DHT22;441;51.192;6.788;2022-08-23T02:13:57;24.40;93.00
909;DHT22;441;51.192;6.788;2022-08-23T02:16:25;24.40;93.10
909;DHT22;441;51.192;6.788;2022-08-23T02:18:53;24.40;93.80
909;DHT22;441;51.192;6.788;2022-08-23T02:21:21;24.40;93.80
909;DHT22;441;51.192;6.788;2022-08-23T02:23:48;24.40;93.50
909;DHT22;441;51.192;6.788;2022-08-23T02:26:16;24.30;93.30
909;DHT22;441;51.192;6.788;2022-08-23T02:28:42;24.30;93.40
909;DHT22;441;51.192;6.788;2022-08-23T02:31:11;24.30;93.30
909;DHT22;441;51.192;6.788;2022-08-23T02:33:38;24.30;93.30
909;DHT22;441;51.192;6.788;2022-08-23T02:36:05;24.30;93.20
909;DHT22;441;51.192;6.788;2022-08-23T02:38:32;24.30;93.10
909;DHT22;441;51.192;6.788;2022-08-23T02:40:58;24.30;92.80
909;DHT22;441;51.192;6.788;2022-08-23T02:43:25;24.30;92.80
909;DHT22;441;51.192;6.788;2022-08-23T02:45:53;24.30;92.70
909;DHT22;441;51.192;6.788;2022-08-23T02:48:21;24.30;92.90
909;DHT22;441;51.192;6.788;2022-08-23T02:50:48;24.20;92.20
909;DHT22;441;51.192;6.788;2022-08-23T02:53:15;24.20;91.80
909;DHT22;441;51.192;6.788;2022-08-23T02:55:44;24.30;91.60
909;DHT22;441;51.192;6.788;2022-08-23T02:58:11;24.30;91.60
909;DHT22;441;51.192;6.788;2022-08-23T03:00:38;24.20;91.90
909;DHT22;441;51.192;6.788;2022-08-23T03:03:05;24.20;92.00
909;DHT22;441;51.192;6.788;2022-08-23T03:05:33;24.20;92.00
909;DHT22;441;51.192;6.788;2022-08-23T03:08:00;24.20;91.90
909;DHT22;441;51.192;6.788;2022-08-23T03:10:27;24.20;91.90
909;DHT22;441;51.192;6.788;2022-08-23T03:12:54;24.20;91.90
909;DHT22;441;51.192;6.788;2022-08-23T03:15:21;24.10;92.00
909;DHT22;441;51.192;6.788;2022-08-23T03:17:48;24.20;92.50
909;DHT22;441;51.192;6.788;2022-08-23T03:20:15;24.10;92.40
909;DHT22;441;51.192;6.788;2022-08-23T03:22:43;24.10;92.20
909;DHT22;441;51.192;6.788;2022-08-23T03:25:10;24.10;92.20
909;DHT22;441;51.192;6.788;2022-08-23T03:27:37;24.10;92.40
909;DHT22;441;51.192;6.788;2022-08-23T03:30:05;24.10;92.30
909;DHT22;441;51.192;6.788;2022-08-23T03:32:33;24.10;92.00
909;DHT22;441;51.192;6.788;2022-08-23T03:35:00;24.10;92.20
909;DHT22;441;51.192;6.788;2022-08-23T03:37:27;24.10;92.40
909;DHT22;441;51.192;6.788;2022-08-23T03:39:55;24.10;92.40
909;DHT22;441;51.192;6.788;2022-08-23T03:42:22;24.00;92.50
909;DHT22;441;51.192;6.788;2022-08-23T03:44:49;24.00;92.70
909;DHT22;441;51.192;6.788;2022-08-23T03:47:16;24.00;92.80
909;DHT22;441;51.192;6.788;2022-08-23T03:49:43;23.90;93.00
909;DHT22;441;51.192;6.788;2022-08-23T03:52:10;23.90;93.20
909;DHT22;441;51.192;6.788;2022-08-23T03:54:37;23.90;93.40
909;DHT22;441;51.192;6.788;2022-08-23T03:57:07;23.90;93.60
909;DHT22;441;51.192;6.788;2022-08-23T03:59:36;23.90;93.60
909;DHT22;441;51.192;6.788;2022-08-23T04:02:04;23.90;93.50
909;DHT22;441;51.192;6.788;2022-08-23T04:04:32;23.90;93.60
909;DHT22;441;51.192;6.788;2022-08-23T04:06:59;23.90;93.60
909;DHT22;441;51.192;6.788;2022-08-23T04:09:27;23.90;93.70
909;DHT22;441;51.192;6.788;2022-08-23T04:11:54;23.90;93.60
909;DHT22;441;51.192;6.788;2022-08-23T04:14:23;23.80;93.90
909;DHT22;441;51.192;6.788;2022-08-23T04:16:51;23.80;93.70
909;DHT22;441;51.192;6.788;2022-08-23T04:19:18;23.80;93.90
909;DHT22;441;51.192;6.788;2022-08-23T04:21:48;23.80;94.20
909;DHT22;441;51.192;6.788;2022-08-23T04:24:16;23.90;94.40
909;DHT22;441;51.192;6.788;2022-08-23T04:26:44;23.90;94.40
909;DHT22;441;51.192;6.788;2022-08-23T04:29:11;23.80;94.20
909;DHT22;441;51.192;6.788;2022-08-23T04:31:42;23.80;94.20
909;DHT22;441;51.192;6.788;2022-08-23T04:34:09;23.80;94.40
909;DHT22;441;51.192;6.788;2022-08-23T04:36:39;23.80;94.90
909;DHT22;441;51.192;6.788;2022-08-23T04:39:07;23.80;94.90
909;DHT22;441;51.192;6.788;2022-08-23T04:41:35;23.80;94.90
909;DHT22;441;51.192;6.788;2022-08-23T04:44:19;23.70;95.00
909;DHT22;441;51.192;6.788;2022-08-23T04:46:48;23.80;95.30
909;DHT22;441;51.192;6.788;2022-08-23T04:49:17;23.80;95.00
909;DHT22;441;51.192;6.788;2022-08-23T04:51:44;23.80;95.10
909;DHT22;441;51.192;6.788;2022-08-23T04:54:11;23.80;95.40
909;DHT22;441;51.192;6.788;2022-08-23T04:56:39;23.80;95.80
909;DHT22;441;51.192;6.788;2022-08-23T04:59:08;23.80;96.30
909;DHT22;441;51.192;6.788;2022-08-23T05:01:35;23.80;96.40
909;DHT22;441;51.192;6.788;2022-08-23T05:04:04;23.80;96.60
909;DHT22;441;51.192;6.788;2022-08-23T05:06:31;23.70;97.20
909;DHT22;441;51.192;6.788;2022-08-23T05:08:57;23.80;97.30
909;DHT22;441;51.192;6.788;2022-08-23T05:11:26;23.70;97.80
909;DHT22;441;51.192;6.788;2022-08-23T05:13:54;23.70;97.80
909;DHT22;441;51.192;6.788;2022-08-23T05:16:21;23.80;98.00
909;DHT22;441;51.192;6.788;2022-08-23T05:18:48;23.70;98.30
909;DHT22;441;51.192;6.788;2022-08-23T05:21:18;23.70;98.20
909;DHT22;441;51.192;6.788;2022-08-23T05:23:45;23.70;98.10
909;DHT22;441;51.192;6.788;2022-08-23T05:26:12;23.70;98.80
909;DHT22;441;51.192;6.788;2022-08-23T05:28:42;23.70;98.00
909;DHT22;441;51.192;6.788;2022-08-23T05:31:12;23.70;97.80
909;DHT22;441;51.192;6.788;2022-08-23T05:33:41;23.70;97.90
909;DHT22;441;51.192;6.788;2022-08-23T05:36:10;23.70;97.60
909;DHT22;441;51.192;6.788;2022-08-23T05:38:39;23.70;97.60
909;DHT22;441;51.192;6.788;2022-08-23T05:41:08;23.70;97.70
909;DHT22;441;51.192;6.788;2022-08-23T05:43:36;23.70;97.50
909;DHT22;441;51.192;6.788;2022-08-23T05:46:06;23.70;97.50
909;DHT22;441;51.192;6.788;2022-08-23T05:48:36;23.70;97.50
909;DHT22;441;51.192;6.788;2022-08-23T05:51:08;23.70;97.30
909;DHT22;441;51.192;6.788;2022-08-23T05:53:35;23.80;97.80
909;DHT22;441;51.192;6.788;2022-08-23T05:56:16;23.70;98.00
909;DHT22;441;51.192;6.788;2022-08-23T05:58:44;23.70;97.60
909;DHT22;441;51.192;6.788;2022-08-23T06:01:11;23.70;97.30
909;DHT22;441;51.192;6.788;2022-08-23T06:03:39;23.80;97.40
909;DHT22;441;51.192;6.788;2022-08-23T06:06:07;23.80;97.30
909;DHT22;441;51.192;6.788;2022-08-23T06:08:35;23.80;97.50
909;DHT22;441;51.192;6.788;2022-08-23T06:11:05;23.80;97.40
909;DHT22;441;51.192;6.788;2022-08-23T06:13:38;23.80;98.00
909;DHT22;441;51.192;6.788;2022-08-23T06:16:06;23.80;98.00
909;DHT22;441;51.192;6.788;2022-08-23T06:18:33;23.90;98.20
909;DHT22;441;51.192;6.788;2022-08-23T06:21:01;23.90;98.10
909;DHT22;441;51.192;6.788;2022-08-23T06:23:28;23.90;98.20
909;DHT22;441;51.192;6.788;2022-08-23T06:25:57;23.90;98.20
909;DHT22;441;51.192;6.788;2022-08-23T06:28:24;23.90;98.00
909;DHT22;441;51.192;6.788;2022-08-23T06:30:54;23.90;97.50
909;DHT22;441;51.192;6.788;2022-08-23T06:33:22;24.00;97.00
909;DHT22;441;51.192;6.788;2022-08-23T06:35:49;24.00;96.60
909;DHT22;441;51.192;6.788;2022-08-23T06:38:26;24.00;96.30
909;DHT22;441;51.192;6.788;2022-08-23T06:40:58;23.90;96.20
909;DHT22;441;51.192;6.788;2022-08-23T06:43:25;23.90;96.20
909;DHT22;441;51.192;6.788;2022-08-23T06:45:53;23.90;96.30
909;DHT22;441;51.192;6.788;2022-08-23T06:48:20;24.00;96.20
909;DHT22;441;51.192;6.788;2022-08-23T06:50:47;24.00;95.70
909;DHT22;441;51.192;6.788;2022-08-23T06:53:14;24.10;95.40
909;DHT22;441;51.192;6.788;2022-08-23T06:55:41;24.00;94.50
909;DHT22;441;51.192;6.788;2022-08-23T06:58:08;24.00;94.20
909;DHT22;441;51.192;6.788;2022-08-23T07:00:35;24.00;94.10
909;DHT22;441;51.192;6.788;2022-08-23T07:03:03;24.10;94.00
909;DHT22;441;51.192;6.788;2022-08-23T07:05:30;24.10;93.80
909;DHT22;441;51.192;6.788;2022-08-23T07:07:57;24.10;93.80
909;DHT22;441;51.192;6.788;2022-08-23T07:10:24;24.00;94.00
909;DHT22;441;51.192;6.788;2022-08-23T07:12:51;24.00;94.30
909;DHT22;441;51.192;6.788;2022-08-23T07:15:18;24.00;94.70
909;DHT22;441;51.192;6.788;2022-08-23T07:17:45;24.10;94.90
909;DHT22;441;51.192;6.788;2022-08-23T07:20:13;24.10;94.60
909;DHT22;441;51.192;6.788;2022-08-23T07:22:40;24.10;94.50
909;DHT22;441;51.192;6.788;2022-08-23T07:25:09;24.10;94.40
909;DHT22;441;51.192;6.788;2022-08-23T07:27:36;24.10;94.10
909;DHT22;441;51.192;6.788;2022-08-23T07:30:04;24.20;94.20
909;DHT22;441;51.192;6.788;2022-08-23T07:32:31;24.20;93.90
909;DHT22;441;51.192;6.788;2022-08-23T07:34:58;24.20;93.70
909;DHT22;441;51.192;6.788;2022-08-23T07:37:26;24.20;93.20
909;DHT22;441;51.192;6.788;2022-08-23T07:39:55;24.20;93.00
909;DHT22;441;51.192;6.788;2022-08-23T07:42:22;24.30;93.40
909;DHT22;441;51.192;6.788;2022-08-23T07:44:50;24.30;93.70
909;DHT22;441;51.192;6.788;2022-08-23T07:47:17;24.40;93.60
909;DHT22;441;51.192;6.788;2022-08-23T07:49:44;24.40;93.30
909;DHT22;441;51.192;6.788;2022-08-23T07:52:11;24.50;93.30
909;DHT22;441;51.192;6.788;2022-08-23T07:54:39;24.50;93.00
909;DHT22;441;51.192;6.788;2022-08-23T07:57:06;24.50;92.90
909;DHT22;441;51.192;6.788;2022-08-23T07:59:33;24.60;92.90
909;DHT22;441;51.192;6.788;2022-08-23T08:02:00;24.60;92.80
909;DHT22;441;51.192;6.788;2022-08-23T08:04:27;24.60;92.80
909;DHT22;441;51.192;6.788;2022-08-23T08:06:54;24.60;92.40
909;DHT22;441;51.192;6.788;2022-08-23T08:09:21;24.60;92.30
909;DHT22;441;51.192;6.788;2022-08-23T08:11:49;24.60;92.00
909;DHT22;441;51.192;6.788;2022-08-23T08:14:17;24.70;92.00
909;DHT22;441;51.192;6.788;2022-08-23T08:16:45;24.70;91.60
909;DHT22;441;51.192;6.788;2022-08-23T08:19:15;24.70;91.40
909;DHT22;441;51.192;6.788;2022-08-23T08:21:43;24.70;91.30
909;DHT22;441;51.192;6.788;2022-08-23T08:24:12;24.70;91.30
909;DHT22;441;51.192;6.788;2022-08-23T08:26:40;24.80;91.20
909;DHT22;441;51.192;6.788;2022-08-23T08:29:10;24.80;90.90
909;DHT22;441;51.192;6.788;2022-08-23T08:31:38;24.90;91.00
909;DHT22;441;51.192;6.788;2022-08-23T08:34:05;24.90;90.80
909;DHT22;441;51.192;6.788;2022-08-23T08:36:35;24.90;90.60
909;DHT22;441;51.192;6.788;2022-08-23T08:39:03;24.90;90.60
909;DHT22;441;51.192;6.788;2022-08-23T08:41:46;25.00;90.70
909;DHT22;441;51.192;6.788;2022-08-23T08:44:23;25.00;91.10
909;DHT22;441;51.192;6.788;2022-08-23T08:46:54;25.00;90.70
909;DHT22;441;51.192;6.788;2022-08-23T08:49:28;25.00;90.40
909;DHT22;441;51.192;6.788;2022-08-23T08:52:00;25.10;90.20
909;DHT22;441;51.192;6.788;2022-08-23T08:54:29;25.10;89.90
909;DHT22;441;51.192;6.788;2022-08-23T08:56:58;25.10;90.20
909;DHT22;441;51.192;6.788;2022-08-23T08:59:34;25.10;90.60
909;DHT22;441;51.192;6.788;2022-08-23T09:02:06;25.20;91.50
909;DHT22;441;51.192;6.788;2022-08-23T09:04:36;25.10;91.20
909;DHT22;441;51.192;6.788;2022-08-23T09:07:11;25.10;92.20
909;DHT22;441;51.192;6.788;2022-08-23T09:12:45;25.10;92.50
909;DHT22;441;51.192;6.788;2022-08-23T09:15:22;25.20;92.80
909;DHT22;441;51.192;6.788;2022-08-23T09:17:55;25.20;92.80
909;DHT22;441;51.192;6.788;2022-08-23T09:20:26;25.20;92.90
909;DHT22;441;51.192;6.788;2022-08-23T09:23:00;25.20;92.80
909;DHT22;441;51.192;6.788;2022-08-23T09:25:30;25.20;92.70
909;DHT22;441;51.192;6.788;2022-08-23T09:27:57;25.20;92.50
909;DHT22;441;51.192;6.788;2022-08-23T09:30:46;25.20;92.40
909;DHT22;441;51.192;6.788;2022-08-23T09:33:17;25.30;92.20
909;DHT22;441;51.192;6.788;2022-08-23T09:36:02;25.30;92.30
909;DHT22;441;51.192;6.788;2022-08-23T09:38:31;25.30;91.90
909;DHT22;441;51.192;6.788;2022-08-23T09:40:58;25.40;92.00
909;DHT22;441;51.192;6.788;2022-08-23T09:43:26;25.40;91.80
909;DHT22;441;51.192;6.788;2022-08-23T09:45:59;25.40;92.20
909;DHT22;441;51.192;6.788;2022-08-23T09:48:35;25.40;92.90
909;DHT22;441;51.192;6.788;2022-08-23T09:51:07;25.40;92.50
909;DHT22;441;51.192;6.788;2022-08-23T09:53:40;25.40;92.40
909;DHT22;441;51.192;6.788;2022-08-23T09:56:12;25.40;92.70
909;DHT22;441;51.192;6.788;2022-08-23T09:58:42;25.40;92.50
909;DHT22;441;51.192;6.788;2022-08-23T10:01:18;25.40;92.30
909;DHT22;441;51.192;6.788;2022-08-23T10:03:46;25.40;92.20
909;DHT22;441;51.192;6.788;2022-08-23T10:06:27;25.40;92.30
909;DHT22;441;51.192;6.788;2022-08-23T10:08:56;25.40;92.10
909;DHT22;441;51.192;6.788;2022-08-23T10:11:32;25.40;92.10
909;DHT22;441;51.192;6.788;2022-08-23T10:14:00;25.50;92.00
909;DHT22;441;51.192;6.788;2022-08-23T10:16:36;25.50;92.20
909;DHT22;441;51.192;6.788;2022-08-23T10:19:09;25.50;91.80
909;DHT22;441;51.192;6.788;2022-08-23T10:21:44;25.50;91.50
909;DHT22;441;51.192;6.788;2022-08-23T10:24:21;25.50;91.20
909;DHT22;441;51.192;6.788;2022-08-23T10:27:02;25.50;91.00
909;DHT22;441;51.192;6.788;2022-08-23T10:29:57;25.60;90.60
909;DHT22;441;51.192;6.788;2022-08-23T10:32:35;25.60;90.40
909;DHT22;441;51.192;6.788;2022-08-23T10:35:24;25.60;90.60
909;DHT22;441;51.192;6.788;2022-08-23T10:38:17;25.60;90.70
909;DHT22;441;51.192;6.788;2022-08-23T10:40:54;25.60;90.60
909;DHT22;441;51.192;6.788;2022-08-23T10:43:32;25.60;90.50
909;DHT22;441;51.192;6.788;2022-08-23T10:46:06;25.60;90.40
909;DHT22;441;51.192;6.788;2022-08-23T10:48:37;25.70;90.70
909;DHT22;441;51.192;6.788;2022-08-23T10:51:10;25.70;90.30
909;DHT22;441;51.192;6.788;2022-08-23T10:53:42;25.70;90.20
909;DHT22;441;51.192;6.788;2022-08-23T10:56:12;25.70;90.20
909;DHT22;441;51.192;6.788;2022-08-23T10:58:54;25.70;89.80
909;DHT22;441;51.192;6.788;2022-08-23T11:01:25;25.70;89.60
909;DHT22;441;51.192;6.788;2022-08-23T11:04:01;25.70;89.40
909;DHT22;441;51.192;6.788;2022-08-23T11:06:50;25.70;89.80
909;DHT22;441;51.192;6.788;2022-08-23T11:09:54;25.70;89.40
909;DHT22;441;51.192;6.788;2022-08-23T11:12:28;25.70;89.20
909;DHT22;441;51.192;6.788;2022-08-23T11:15:08;25.70;88.40
909;DHT22;441;51.192;6.788;2022-08-23T11:17:41;25.70;88.50
909;DHT22;441;51.192;6.788;2022-08-23T11:23:42;25.80;88.00
909;DHT22;441;51.192;6.788;2022-08-23T11:26:59;25.80;87.30
909;DHT22;441;51.192;6.788;2022-08-23T11:29:26;25.90;87.20
909;DHT22;441;51.192;6.788;2022-08-23T11:31:59;25.90;86.00
909;DHT22;441;51.192;6.788;2022-08-23T11:34:30;25.90;86.50
909;DHT22;441;51.192;6.788;2022-08-23T11:37:28;25.90;85.40
909;DHT22;441;51.192;6.788;2022-08-23T11:40:06;25.90;86.20
909;DHT22;441;51.192;6.788;2022-08-23T11:42:48;25.90;84.80
909;DHT22;441;51.192;6.788;2022-08-23T11:45:27;25.90;84.60
909;DHT22;441;51.192;6.788;2022-08-23T11:48:12;25.90;84.70
909;DHT22;441;51.192;6.788;2022-08-23T11:50:57;26.00;84.30
909;DHT22;441;51.192;6.788;2022-08-23T11:53:45;25.90;83.70
909;DHT22;441;51.192;6.788;2022-08-23T11:56:37;26.00;83.70
909;DHT22;441;51.192;6.788;2022-08-23T11:59:28;26.00;83.20
909;DHT22;441;51.192;6.788;2022-08-23T12:02:28;26.00;83.60
909;DHT22;441;51.192;6.788;2022-08-23T12:04:57;26.10;82.80
909;DHT22;441;51.192;6.788;2022-08-23T12:07:43;26.10;82.10
909;DHT22;441;51.192;6.788;2022-08-23T12:10:15;26.10;82.30
909;DHT22;441;51.192;6.788;2022-08-23T12:12:43;26.10;82.00
909;DHT22;441;51.192;6.788;2022-08-23T12:15:11;26.20;80.60
909;DHT22;441;51.192;6.788;2022-08-23T12:18:12;26.20;80.80
909;DHT22;441;51.192;6.788;2022-08-23T12:20:41;26.20;79.80
909;DHT22;441;51.192;6.788;2022-08-23T12:23:16;26.30;79.60
909;DHT22;441;51.192;6.788;2022-08-23T12:25:43;26.30;79.40
909;DHT22;441;51.192;6.788;2022-08-23T12:28:27;26.20;79.10
909;DHT22;441;51.192;6.788;2022-08-23T12:31:01;26.20;78.90
909;DHT22;441;51.192;6.788;2022-08-23T12:33:38;26.20;78.90
909;DHT22;441;51.192;6.788;2022-08-23T12:36:09;26.20;78.90
909;DHT22;441;51.192;6.788;2022-08-23T12:38:47;26.20;78.80
909;DHT22;441;51.192;6.788;2022-08-23T12:41:21;26.20;78.80
909;DHT22;441;51.192;6.788;2022-08-23T12:44:00;26.30;78.60
909;DHT22;441;51.192;6.788;2022-08-23T12:46:35;26.30;78.30
909;DHT22;441;51.192;6.788;2022-08-23T12:49:02;26.30;78.10
909;DHT22;441;51.192;6.788;2022-08-23T12:51:30;26.30;77.80
909;DHT22;441;51.192;6.788;2022-08-23T12:54:11;26.30;77.80
909;DHT22;441;51.192;6.788;2022-08-23T12:56:39;26.30;77.60
909;DHT22;441;51.192;6.788;2022-08-23T12:59:29;26.30;77.40
909;DHT22;441;51.192;6.788;2022-08-23T13:01:59;26.30;77.50
909;DHT22;441;51.192;6.788;2022-08-23T13:04:26;26.30;77.40
909;DHT22;441;51.192;6.788;2022-08-23T13:06:56;26.30;77.40
909;DHT22;441;51.192;6.788;2022-08-23T13:09:27;26.40;77.20
909;DHT22;441;51.192;6.788;2022-08-23T13:11:55;26.40;77.00
909;DHT22;441;51.192;6.788;2022-08-23T13:14:34;26.40;76.80
909;DHT22;441;51.192;6.788;2022-08-23T13:17:21;26.40;76.70
909;DHT22;441;51.192;6.788;2022-08-23T13:20:11;26.40;76.80
909;DHT22;441;51.192;6.788;2022-08-23T13:22:53;26.50;76.70
909;DHT22;441;51.192;6.788;2022-08-23T13:25:25;26.50;76.60
909;DHT22;441;51.192;6.788;2022-08-23T13:27:55;26.50;76.30
909;DHT22;441;51.192;6.788;2022-08-23T13:30:27;26.50;76.00
909;DHT22;441;51.192;6.788;2022-08-23T13:33:16;26.60;76.00
909;DHT22;441;51.192;6.788;2022-08-23T13:35:45;26.60;75.80
909;DHT22;441;51.192;6.788;2022-08-23T13:38:20;26.70;75.50
909;DHT22;441;51.192;6.788;2022-08-23T13:40:56;26.70;75.30
909;DHT22;441;51.192;6.788;2022-08-23T13:43:26;26.70;75.00
909;DHT22;441;51.192;6.788;2022-08-23T13:45:57;26.80;75.10
909;DHT22;441;51.192;6.788;2022-08-23T13:48:29;26.80;74.90
909;DHT22;441;51.192;6.788;2022-08-23T13:51:18;26.80;74.50
909;DHT22;441;51.192;6.788;2022-08-23T13:53:46;26.90;74.40
909;DHT22;441;51.192;6.788;2022-08-23T13:56:13;26.80;74.20
909;DHT22;441;51.192;6.788;2022-08-23T13:58:40;26.90;74.00
909;DHT22;441;51.192;6.788;2022-08-23T14:01:16;26.90;73.50
909;DHT22;441;51.192;6.788;2022-08-23T14:03:43;26.90;74.20
909;DHT22;441;51.192;6.788;2022-08-23T14:06:11;26.90;74.50
909;DHT22;441;51.192;6.788;2022-08-23T14:08:38;26.80;75.00
909;DHT22;441;51.192;6.788;2022-08-23T14:11:05;26.80;75.60
909;DHT22;441;51.192;6.788;2022-08-23T14:13:32;26.80;75.90
909;DHT22;441;51.192;6.788;2022-08-23T14:16:03;26.80;76.00
909;DHT22;441;51.192;6.788;2022-08-23T14:18:32;26.80;76.00
909;DHT22;441;51.192;6.788;2022-08-23T14:20:59;26.80;76.20
909;DHT22;441;51.192;6.788;2022-08-23T14:23:26;26.80;76.70
909;DHT22;441;51.192;6.788;2022-08-23T14:25:55;26.80;78.40
909;DHT22;441;51.192;6.788;2022-08-23T14:28:26;26.80;80.60
909;DHT22;441;51.192;6.788;2022-08-23T14:30:53;26.90;83.10
909;DHT22;441;51.192;6.788;2022-08-23T14:33:21;26.90;84.30
909;DHT22;441;51.192;6.788;2022-08-23T14:35:51;26.80;83.40
909;DHT22;441;51.192;6.788;2022-08-23T14:38:19;26.90;83.90
909;DHT22;441;51.192;6.788;2022-08-23T14:40:51;26.80;84.30
909;DHT22;441;51.192;6.788;2022-08-23T14:43:19;26.90;85.40
909;DHT22;441;51.192;6.788;2022-08-23T14:45:47;26.90;85.00
909;DHT22;441;51.192;6.788;2022-08-23T14:48:14;26.90;84.00
909;DHT22;441;51.192;6.788;2022-08-23T14:50:42;26.90;84.20
909;DHT22;441;51.192;6.788;2022-08-23T14:53:11;26.90;84.10
909;DHT22;441;51.192;6.788;2022-08-23T14:55:39;26.90;84.00
909;DHT22;441;51.192;6.788;2022-08-23T14:58:07;26.90;83.80
909;DHT22;441;51.192;6.788;2022-08-23T15:00:35;27.00;83.50
909;DHT22;441;51.192;6.788;2022-08-23T15:03:04;27.00;83.30
909;DHT22;441;51.192;6.788;2022-08-23T15:05:32;27.00;83.20
909;DHT22;441;51.192;6.788;2022-08-23T15:07:59;27.00;83.00
909;DHT22;441;51.192;6.788;2022-08-23T15:10:28;27.10;83.10
909;DHT22;441;51.192;6.788;2022-08-23T15:12:55;27.00;82.80
909;DHT22;441;51.192;6.788;2022-08-23T15:15:22;27.00;82.80
909;DHT22;441;51.192;6.788;2022-08-23T15:17:52;27.10;82.80
909;DHT22;441;51.192;6.788;2022-08-23T15:20:23;27.10;83.00
909;DHT22;441;51.192;6.788;2022-08-23T15:22:51;27.10;83.10
909;DHT22;441;51.192;6.788;2022-08-23T15:25:18;27.10;83.00
909;DHT22;441;51.192;6.788;2022-08-23T15:27:48;27.10;82.80
909;DHT22;441;51.192;6.788;2022-08-23T15:30:16;27.10;82.80
909;DHT22;441;51.192;6.788;2022-08-23T15:32:43;27.10;82.90
909;DHT22;441;51.192;6.788;2022-08-23T15:35:10;27.10;83.00
909;DHT22;441;51.192;6.788;2022-08-23T15:37:38;27.10;82.70
909;DHT22;441;51.192;6.788;2022-08-23T15:40:06;27.10;82.80
909;DHT22;441;51.192;6.788;2022-08-23T15:42:33;27.10;82.60
909;DHT22;441;51.192;6.788;2022-08-23T15:45:03;27.20;82.80
909;DHT22;441;51.192;6.788;2022-08-23T15:47:32;27.20;82.60
909;DHT22;441;51.192;6.788;2022-08-23T15:50:00;27.20;82.80
909;DHT22;441;51.192;6.788;2022-08-23T15:52:30;27.20;82.80
909;DHT22;441;51.192;6.788;2022-08-23T15:54:57;27.20;82.50
909;DHT22;441;51.192;6.788;2022-08-23T15:57:26;27.20;82.60
909;DHT22;441;51.192;6.788;2022-08-23T15:59:54;27.10;82.60
909;DHT22;441;51.192;6.788;2022-08-23T16:02:23;27.10;82.60
909;DHT22;441;51.192;6.788;2022-08-23T16:04:50;27.20;82.70
909;DHT22;441;51.192;6.788;2022-08-23T16:07:17;27.20;82.60
909;DHT22;441;51.192;6.788;2022-08-23T16:09:46;27.20;82.40
909;DHT22;441;51.192;6.788;2022-08-23T16:12:13;27.20;82.30
909;DHT22;441;51.192;6.788;2022-08-23T16:14:40;27.20;82.50
909;DHT22;441;51.192;6.788;2022-08-23T16:17:07;27.20;82.60
909;DHT22;441;51.192;6.788;2022-08-23T16:19:36;27.20;82.60
909;DHT22;441;51.192;6.788;2022-08-23T16:22:04;27.20;82.50
909;DHT22;441;51.192;6.788;2022-08-23T16:24:31;27.20;82.40
909;DHT22;441;51.192;6.788;2022-08-23T16:26:58;27.20;82.80
909;DHT22;441;51.192;6.788;2022-08-23T16:29:25;27.20;82.80
909;DHT22;441;51.192;6.788;2022-08-23T16:31:56;27.20;82.80
909;DHT22;441;51.192;6.788;2022-08-23T16:34:23;27.30;82.70
909;DHT22;441;51.192;6.788;2022-08-23T16:36:56;27.20;83.50
909;DHT22;441;51.192;6.788;2022-08-23T16:39:24;27.20;82.90
909;DHT22;441;51.192;6.788;2022-08-23T16:41:52;27.20;83.00
909;DHT22;441;51.192;6.788;2022-08-23T16:44:19;27.20;83.10
909;DHT22;441;51.192;6.788;2022-08-23T16:46:46;27.20;82.80
909;DHT22;441;51.192;6.788;2022-08-23T16:49:15;27.20;82.60
909;DHT22;441;51.192;6.788;2022-08-23T16:51:43;27.20;82.40
909;DHT22;441;51.192;6.788;2022-08-23T16:54:12;27.30;82.30
909;DHT22;441;51.192;6.788;2022-08-23T16:56:40;27.30;82.20
909;DHT22;441;51.192;6.788;2022-08-23T16:59:10;27.30;83.00
909;DHT22;441;51.192;6.788;2022-08-23T17:01:46;27.30;82.30
909;DHT22;441;51.192;6.788;2022-08-23T17:04:14;27.30;82.50